UUDD/DME METAR and TAF weather

Enter ICAO airport designator
Station Type Date Time Source
UUDD METAR 2019/11/18 09:00 UTC NOAA

UUDD 180900Z 28003MPS 2800 0900W R14R/0900D R14L/P2000N PRFG OVC002 01/00 Q1029 R88/190055 TEMPO 0500 FG RMK QBB060


Station Type Date Time Source
UUDD Decoded METAR 2019/11/18 09:00 UTC NOAA

Moscow / Domodedovo, Russia (UUDD) 55-24N 037-54E
Nov 18, 2019 - 04:00 AM EST / 2019.11.18 0900 UTC
Wind: from the W (280 degrees) at 7 MPH (6 KT):0
Visibility: 1 mile(s):0
Sky conditions: overcast
Weather: partial fog
Temperature: 33 F (1 C)
Windchill: 26 F (-3 C):1
Dew Point: 32 F (0 C)
Relative Humidity: 93%
Pressure (altimeter): 30.39 in. Hg (1029 hPa)
ob: UUDD 180900Z 28003MPS 2800 0900W R14R/0900D R14L/P2000N PRFG OVC002 01/00 Q1029 R88/190055 TEMPO 0500 FG RMK QBB060
cycle: 9

Station Type Date Time Source
UUDD TAF 2019/11/18 09:21 UTC NOAA

TAF UUDD 180756Z 1809/1915 23002MPS 3100 BR OVC003 TX04/1912Z TN02/1900Z
TEMPO 1809/1815 0800 FG OVC002
TEMPO 1815/1907 0300 -DZ FG OVC001
FM190800 10005MPS 6000 FEW004 BKN011

Example: see airport list